Terminal Aerodrome Forecast
Issued by NWS Memphis, TN

Home | Current Version | Previous Version | Text Only | Print | Product List | Glossary On
Versions: 1 2 3 4 5 6 7 8 9 10 11 12 13 14 15 16 17 18 19 20 21 22 23 24 25 26 27 28 29 30
302
FTUS44 KMEG 202343
TAFMEM
TAF
KMEM 202343Z 2100/2124 19010KT P6SM BKN250
     FM210100 19006KT P6SM BKN250
     FM210900 19006KT 5SM BR SCT015 BKN250
     FM211300 18006KT P6SM VCSH BKN015 BKN080
     FM211600 18010KT P6SM VCTS BKN025CB BKN150
      TEMPO 2121/2124 2SM +TSRA BR BKN015CB=

USA.gov is the U.S. government's official web portal to all federal, state and local government web resources and services.